createdAt,value
2019-01-24T00:00:10.841Z,0
2019-01-24T00:01:20.842Z,0
2019-01-24T00:02:30.821Z,0
2019-01-24T00:03:40.800Z,0
2019-01-24T00:04:50.776Z,0
2019-01-24T00:06:00.759Z,0
2019-01-24T00:07:10.738Z,0
2019-01-24T00:08:20.714Z,0
2019-01-24T00:09:30.689Z,0
2019-01-24T00:10:40.702Z,0
2019-01-24T00:11:50.821Z,0
2019-01-24T00:13:00.552Z,0
2019-01-24T00:14:10.540Z,0
2019-01-24T00:15:20.562Z,0
2019-01-24T00:16:30.692Z,0
2019-01-24T00:17:40.777Z,0
2019-01-24T00:18:50.503Z,0
2019-01-24T00:20:00.490Z,0
2019-01-24T00:21:10.473Z,0
2019-01-24T00:22:20.450Z,0
2019-01-24T00:23:30.480Z,0
2019-01-24T00:24:40.465Z,0
2019-01-24T00:25:50.450Z,0
2019-01-24T00:27:00.432Z,0
2019-01-24T00:28:10.419Z,0
2019-01-24T00:29:20.510Z,0
2019-01-24T00:30:30.500Z,0
2019-01-24T00:31:40.501Z,0
2019-01-24T00:32:50.483Z,0
2019-01-24T00:34:00.463Z,0
2019-01-24T00:35:10.594Z,0
2019-01-24T00:36:20.575Z,0
2019-01-24T00:37:30.561Z,0
2019-01-24T00:38:40.545Z,0
2019-01-24T00:39:50.519Z,0
2019-01-24T00:41:00.610Z,0
2019-01-24T00:42:10.590Z,0
2019-01-24T00:43:21.842Z,0
2019-01-24T00:44:31.827Z,0
2019-01-24T00:45:41.808Z,0
2019-01-24T00:46:51.540Z,0
2019-01-24T00:48:01.517Z,0
2019-01-24T00:49:11.497Z,0
2019-01-24T00:50:21.478Z,0
2019-01-24T00:51:31.453Z,0
2019-01-24T00:52:41.537Z,0
2019-01-24T00:53:51.514Z,0
2019-01-24T00:55:01.493Z,0
2019-01-24T00:56:11.472Z,0
2019-01-24T00:57:21.458Z,0
2019-01-24T00:58:31.486Z,0
2019-01-24T00:59:41.465Z,0
2019-01-24T01:00:51.453Z,0
2019-01-24T01:02:01.437Z,0
2019-01-24T01:03:11.414Z,0
2019-01-24T01:04:21.494Z,0
2019-01-24T01:05:31.500Z,0
2019-01-24T01:06:41.500Z,0
2019-01-24T01:07:51.481Z,0
2019-01-24T01:09:01.464Z,0
2019-01-24T01:10:11.440Z,0
2019-01-24T01:11:21.422Z,0
2019-01-24T01:12:31.403Z,0
2019-01-24T01:13:41.390Z,0
2019-01-24T01:14:51.366Z,0
2019-01-24T01:16:01.448Z,0
2019-01-24T01:17:11.431Z,0
2019-01-24T01:18:21.412Z,0
2019-01-24T01:19:31.395Z,0
2019-01-24T01:20:41.374Z,0
2019-01-24T01:21:51.458Z,0
2019-01-24T01:23:01.434Z,0
2019-01-24T01:24:11.421Z,0
2019-01-24T01:25:21.398Z,0
2019-01-24T01:26:31.377Z,0
2019-01-24T01:27:41.453Z,0
2019-01-24T01:28:51.432Z,0
2019-01-24T01:30:01.408Z,0
2019-01-24T01:31:11.389Z,0
2019-01-24T01:32:21.366Z,0
2019-01-24T01:33:31.444Z,0
2019-01-24T01:34:43.617Z,0
2019-01-24T01:35:53.344Z,0
2019-01-24T01:37:03.324Z,0
2019-01-24T01:38:13.307Z,0
2019-01-24T01:39:23.354Z,0
2019-01-24T01:40:33.329Z,0
2019-01-24T01:41:43.308Z,0
2019-01-24T01:42:53.292Z,0
2019-01-24T01:44:03.275Z,0
2019-01-24T01:45:13.354Z,0
2019-01-24T01:46:23.333Z,0
2019-01-24T01:47:33.309Z,0
2019-01-24T01:48:43.287Z,0
2019-01-24T01:49:53.267Z,0
2019-01-24T01:51:03.298Z,0
2019-01-24T01:52:13.282Z,0
2019-01-24T01:53:23.259Z,0
2019-01-24T01:54:33.240Z,0
2019-01-24T01:55:43.219Z,0
2019-01-24T01:56:53.246Z,0
2019-01-24T01:58:03.228Z,0
2019-01-24T01:59:13.206Z,0
2019-01-24T02:00:23.191Z,0
2019-01-24T02:01:33.168Z,0
2019-01-24T02:02:43.253Z,0
2019-01-24T02:03:53.235Z,0
2019-01-24T02:05:03.217Z,0
2019-01-24T02:06:13.197Z,0
2019-01-24T02:07:23.185Z,0
2019-01-24T02:08:33.217Z,0
2019-01-24T02:09:43.195Z,0
2019-01-24T02:10:53.210Z,0
2019-01-24T02:12:03.192Z,0
2019-01-24T02:13:13.173Z,0
2019-01-24T02:14:23.207Z,0
2019-01-24T02:15:33.185Z,0
2019-01-24T02:16:43.170Z,0
2019-01-24T02:17:52.908Z,0
2019-01-24T02:19:02.892Z,0
2019-01-24T02:20:12.919Z,0
2019-01-24T02:21:22.896Z,0
2019-01-24T02:22:32.875Z,0
2019-01-24T02:23:42.852Z,0
2019-01-24T02:24:52.830Z,0
2019-01-24T02:26:02.860Z,0
2019-01-24T02:27:12.841Z,0
2019-01-24T02:28:22.830Z,0
2019-01-24T02:29:32.809Z,0
2019-01-24T02:30:42.792Z,0
2019-01-24T02:31:52.772Z,0
2019-01-24T02:33:02.757Z,0
2019-01-24T02:34:12.499Z,0
2019-01-24T02:35:22.489Z,0
2019-01-24T02:36:32.223Z,0
2019-01-24T02:37:42.203Z,0
2019-01-24T02:38:52.183Z,0
2019-01-24T02:40:02.192Z,0
2019-01-24T02:41:12.173Z,0
2019-01-24T02:42:21.838Z,0
2019-01-24T02:43:31.864Z,0
2019-01-24T02:44:41.860Z,0
2019-01-24T02:45:51.846Z,0
2019-01-24T02:47:01.826Z,0
2019-01-24T02:48:11.814Z,0
2019-01-24T02:49:21.792Z,0
2019-01-24T02:50:31.788Z,0
2019-01-24T02:51:41.768Z,0
2019-01-24T02:52:51.767Z,0
2019-01-24T02:54:01.749Z,0
2019-01-24T02:55:11.850Z,0
2019-01-24T02:56:21.841Z,0
2019-01-24T02:57:31.837Z,0
2019-01-24T02:58:41.824Z,0
2019-01-24T02:59:51.812Z,0
2019-01-24T03:01:01.905Z,0
2019-01-24T03:02:11.886Z,0
2019-01-24T03:03:21.871Z,0
2019-01-24T03:04:31.867Z,0
2019-01-24T03:05:41.857Z,0
2019-01-24T03:06:51.940Z,0
2019-01-24T03:08:01.927Z,0
2019-01-24T03:09:11.912Z,0
2019-01-24T03:10:21.904Z,0
2019-01-24T03:11:31.880Z,0
2019-01-24T03:12:41.959Z,0
2019-01-24T03:13:51.944Z,0
2019-01-24T03:15:01.948Z,0
2019-01-24T03:16:11.954Z,0
2019-01-24T03:17:21.948Z,0
2019-01-24T03:18:31.995Z,0
2019-01-24T03:19:41.976Z,0
2019-01-24T03:20:51.971Z,0
2019-01-24T03:22:01.954Z,0
2019-01-24T03:23:11.932Z,0
2019-01-24T03:24:21.965Z,0
2019-01-24T03:25:31.949Z,0
2019-01-24T03:26:41.610Z,0
2019-01-24T03:27:51.598Z,0
2019-01-24T03:29:01.576Z,0
2019-01-24T03:30:11.686Z,0
2019-01-24T03:31:21.675Z,0
2019-01-24T03:32:31.686Z,0
2019-01-24T03:33:41.676Z,0
2019-01-24T03:34:51.660Z,0
2019-01-24T03:36:01.693Z,0
2019-01-24T03:37:11.424Z,0
2019-01-24T03:38:21.402Z,0
2019-01-24T03:39:31.384Z,0
2019-01-24T03:40:41.372Z,0
2019-01-24T03:41:51.461Z,0
2019-01-24T03:43:01.444Z,0
2019-01-24T03:44:11.426Z,0
2019-01-24T03:45:21.413Z,0
2019-01-24T03:46:31.392Z,0
2019-01-24T03:47:41.471Z,0
2019-01-24T03:48:51.466Z,0
2019-01-24T03:50:01.451Z,0
2019-01-24T03:51:11.442Z,0
2019-01-24T03:52:21.423Z,0
2019-01-24T03:53:31.512Z,0
2019-01-24T03:54:41.490Z,0
2019-01-24T03:55:51.471Z,0
2019-01-24T03:57:01.451Z,0
2019-01-24T03:58:11.438Z,0
2019-01-24T03:59:21.469Z,0
2019-01-24T04:00:31.449Z,0
2019-01-24T04:01:41.436Z,0
2019-01-24T04:02:51.419Z,0
2019-01-24T04:04:01.394Z,0
2019-01-24T04:05:18.892Z,0
2019-01-24T04:06:28.876Z,0
2019-01-24T04:07:38.853Z,0
2019-01-24T04:08:48.834Z,0
2019-01-24T04:09:58.821Z,0
2019-01-24T04:11:08.902Z,0
2019-01-24T04:12:18.899Z,0
2019-01-24T04:13:28.886Z,0
2019-01-24T04:14:38.891Z,0
2019-01-24T04:15:48.875Z,0
2019-01-24T04:16:58.970Z,0
2019-01-24T04:18:08.959Z,0
2019-01-24T04:19:18.943Z,0
2019-01-24T04:20:28.923Z,0
2019-01-24T04:21:38.904Z,0
2019-01-24T04:22:48.986Z,0
2019-01-24T04:23:58.970Z,0
2019-01-24T04:25:08.954Z,0
2019-01-24T04:26:18.951Z,0
2019-01-24T04:27:28.934Z,0
2019-01-24T04:28:39.013Z,0
2019-01-24T04:29:49.008Z,0
2019-01-24T04:30:58.993Z,0
2019-01-24T04:32:08.987Z,0
2019-01-24T04:33:18.965Z,0
2019-01-24T04:34:29.000Z,0
2019-01-24T04:35:38.982Z,0
2019-01-24T04:36:48.970Z,0
2019-01-24T04:37:58.947Z,0
2019-01-24T04:39:08.964Z,0
2019-01-24T04:40:18.979Z,0
2019-01-24T04:41:28.968Z,0
2019-01-24T04:42:38.956Z,0
2019-01-24T04:43:48.952Z,0
2019-01-24T04:44:58.934Z,0
2019-01-24T04:46:09.017Z,0
2019-01-24T04:47:18.999Z,0
2019-01-24T04:48:28.480Z,0
2019-01-24T04:49:38.474Z,0
2019-01-24T04:50:48.465Z,0
2019-01-24T04:51:58.571Z,0
2019-01-24T04:53:08.549Z,0
2019-01-24T04:54:18.540Z,0
2019-01-24T04:55:28.526Z,0
2019-01-24T04:56:38.520Z,0
2019-01-24T04:57:48.569Z,0
2019-01-24T04:58:58.558Z,0
2019-01-24T05:00:08.572Z,0
2019-01-24T05:01:18.585Z,0
2019-01-24T05:02:28.576Z,0
2019-01-24T05:03:38.889Z,0
2019-01-24T05:04:48.882Z,0
2019-01-24T05:05:58.867Z,0
2019-01-24T05:07:08.849Z,0
2019-01-24T05:08:18.833Z,0
2019-01-24T05:09:28.974Z,0
2019-01-24T05:10:38.959Z,0
2019-01-24T05:11:48.939Z,0
2019-01-24T05:12:58.957Z,0
2019-01-24T05:14:08.943Z,0
2019-01-24T05:15:18.981Z,0
2019-01-24T05:16:28.961Z,0
2019-01-24T05:17:38.702Z,0
2019-01-24T05:18:48.713Z,0
2019-01-24T05:19:58.691Z,0
2019-01-24T05:21:08.725Z,0
2019-01-24T05:22:18.737Z,0
2019-01-24T05:23:28.722Z,0
2019-01-24T05:24:38.705Z,0
2019-01-24T05:25:48.683Z,0
2019-01-24T05:26:58.762Z,0
2019-01-24T05:28:08.742Z,0
2019-01-24T05:29:18.736Z,0
2019-01-24T05:30:28.714Z,0
2019-01-24T05:31:38.696Z,0
2019-01-24T05:32:48.734Z,0
2019-01-24T05:33:58.717Z,0
2019-01-24T05:35:08.701Z,0
2019-01-24T05:36:18.683Z,0
2019-01-24T05:37:28.671Z,0
2019-01-24T05:38:39.681Z,0
2019-01-24T05:39:49.668Z,0
2019-01-24T05:40:59.649Z,0
2019-01-24T05:42:09.379Z,0
2019-01-24T05:43:19.367Z,0
2019-01-24T05:44:29.459Z,0
2019-01-24T05:45:39.447Z,0
2019-01-24T05:46:49.190Z,0
2019-01-24T05:47:59.179Z,0
2019-01-24T05:49:08.911Z,0
2019-01-24T05:50:18.913Z,0
2019-01-24T05:51:28.889Z,0
2019-01-24T05:52:38.908Z,0
2019-01-24T05:53:48.911Z,0
2019-01-24T05:54:58.903Z,0
2019-01-24T05:56:08.935Z,0
2019-01-24T05:57:18.918Z,0
2019-01-24T05:58:28.899Z,0
2019-01-24T05:59:38.879Z,0
2019-01-24T06:00:48.860Z,0
2019-01-24T06:01:58.992Z,0
2019-01-24T06:03:08.975Z,0
2019-01-24T06:04:18.954Z,0
2019-01-24T06:05:28.953Z,0
2019-01-24T06:06:38.941Z,0
2019-01-24T06:07:49.031Z,0
2019-01-24T06:08:59.012Z,0
2019-01-24T06:10:08.995Z,0
2019-01-24T06:11:18.973Z,0
2019-01-24T06:12:28.953Z,0
2019-01-24T06:13:39.037Z,0
2019-01-24T06:14:49.019Z,0
2019-01-24T06:15:58.997Z,0
2019-01-24T06:17:08.978Z,0
2019-01-24T06:18:18.965Z,0
2019-01-24T06:19:29.304Z,0
2019-01-24T06:20:39.299Z,0
2019-01-24T06:21:49.279Z,0
2019-01-24T06:22:59.269Z,0
2019-01-24T06:24:09.255Z,0
2019-01-24T06:25:19.260Z,0
2019-01-24T06:26:29.239Z,0
2019-01-24T06:27:39.218Z,0
2019-01-24T06:28:49.194Z,0
2019-01-24T06:29:59.176Z,0
2019-01-24T06:31:09.258Z,0
2019-01-24T06:32:19.245Z,0
2019-01-24T06:33:29.231Z,0
2019-01-24T06:34:39.212Z,0
2019-01-24T06:35:55.677Z,0
2019-01-24T06:37:05.788Z,0
2019-01-24T06:38:15.765Z,0
2019-01-24T06:39:25.745Z,0
2019-01-24T06:40:35.726Z,0
2019-01-24T06:41:45.716Z,0
2019-01-24T06:42:55.804Z,0
2019-01-24T06:44:05.790Z,0
2019-01-24T06:45:15.766Z,0
2019-01-24T06:46:25.745Z,0
2019-01-24T06:47:35.733Z,0
2019-01-24T06:48:45.776Z,0
2019-01-24T06:49:55.755Z,0
2019-01-24T06:51:05.736Z,0
2019-01-24T06:52:15.711Z,0
2019-01-24T06:53:25.729Z,0
2019-01-24T06:54:35.809Z,0
2019-01-24T06:55:45.788Z,0
2019-01-24T06:56:55.766Z,0
2019-01-24T06:58:05.748Z,0
2019-01-24T06:59:15.477Z,0
2019-01-24T07:00:25.515Z,0
2019-01-24T07:01:35.506Z,0
2019-01-24T07:02:45.487Z,0
2019-01-24T07:03:55.475Z,0
2019-01-24T07:05:05.509Z,0
2019-01-24T07:06:15.650Z,0
2019-01-24T07:07:25.631Z,0
2019-01-24T07:08:35.618Z,0
2019-01-24T07:09:45.596Z,0
2019-01-24T07:10:55.575Z,0
2019-01-24T07:12:05.607Z,0
2019-01-24T07:13:15.586Z,0
2019-01-24T07:14:25.564Z,0
2019-01-24T07:15:35.542Z,0
2019-01-24T07:16:45.520Z,0
2019-01-24T07:17:55.599Z,0
2019-01-24T07:19:05.580Z,0
2019-01-24T07:20:15.568Z,0
2019-01-24T07:21:25.549Z,0
2019-01-24T07:22:35.539Z,0
2019-01-24T07:23:45.520Z,0
2019-01-24T07:24:55.498Z,0
2019-01-24T07:26:05.474Z,0
2019-01-24T07:27:15.455Z,0
2019-01-24T07:28:25.440Z,0
2019-01-24T07:29:35.518Z,0
2019-01-24T07:30:45.497Z,0
2019-01-24T07:31:55.476Z,0
2019-01-24T07:33:06.880Z,0
2019-01-24T07:34:16.864Z,0
2019-01-24T07:35:26.672Z,0
2019-01-24T07:36:36.652Z,0
2019-01-24T07:37:46.630Z,0
2019-01-24T07:38:56.608Z,0
2019-01-24T07:40:06.596Z,0
2019-01-24T07:41:16.673Z,0
2019-01-24T07:42:26.654Z,0
2019-01-24T07:43:36.636Z,0
2019-01-24T07:44:46.371Z,0
2019-01-24T07:45:56.355Z,0
2019-01-24T07:47:06.467Z,0
2019-01-24T07:48:16.449Z,0
2019-01-24T07:49:26.428Z,0
2019-01-24T07:50:36.418Z,0
2019-01-24T07:51:46.395Z,5
2019-01-24T07:52:56.484Z,5
2019-01-24T07:54:06.466Z,5
2019-01-24T07:55:16.491Z,5
2019-01-24T07:56:26.522Z,5
2019-01-24T07:57:36.742Z,5
2019-01-24T07:58:46.722Z,5
2019-01-24T07:59:56.699Z,5
2019-01-24T08:01:06.685Z,5
2019-01-24T08:02:16.662Z,5
2019-01-24T08:03:26.641Z,5
2019-01-24T08:04:36.721Z,5
2019-01-24T08:05:47.474Z,5
2019-01-24T08:06:57.458Z,5
2019-01-24T08:08:07.444Z,5
2019-01-24T08:09:17.425Z,5
2019-01-24T08:10:27.505Z,10
2019-01-24T08:11:37.486Z,10
2019-01-24T08:12:47.469Z,10
2019-01-24T08:13:57.452Z,10
2019-01-24T08:15:07.433Z,10
2019-01-24T08:16:17.511Z,10
2019-01-24T08:17:27.492Z,10
2019-01-24T08:18:37.470Z,10
2019-01-24T08:19:47.447Z,15
2019-01-24T08:20:57.429Z,15
2019-01-24T08:22:07.560Z,15
2019-01-24T08:23:17.539Z,15
2019-01-24T08:24:27.521Z,15
2019-01-24T08:25:37.506Z,15
2019-01-24T08:26:47.490Z,15
2019-01-24T08:27:57.519Z,15
2019-01-24T08:29:07.502Z,15
2019-01-24T08:30:17.483Z,20
2019-01-24T08:31:27.467Z,20
2019-01-24T08:32:38.203Z,20
2019-01-24T08:33:48.278Z,20
2019-01-24T08:34:58.002Z,20
2019-01-24T08:36:07.981Z,20
2019-01-24T08:37:17.962Z,20
2019-01-24T08:38:27.945Z,25
2019-01-24T08:39:38.028Z,25
2019-01-24T08:40:48.013Z,25
2019-01-24T08:41:57.991Z,25
2019-01-24T08:43:07.968Z,30
2019-01-24T08:44:17.954Z,30
2019-01-24T08:45:27.936Z,30
2019-01-24T08:46:37.916Z,30
2019-01-24T08:47:47.914Z,30
2019-01-24T08:48:57.894Z,30
2019-01-24T08:50:07.872Z,30
2019-01-24T08:51:17.850Z,35
2019-01-24T08:52:27.841Z,35
2019-01-24T08:53:37.821Z,35
2019-01-24T08:54:47.799Z,35
2019-01-24T08:55:57.785Z,35
2019-01-24T08:57:07.788Z,35
2019-01-24T08:58:17.779Z,35
2019-01-24T08:59:34.164Z,40
2019-01-24T09:00:44.145Z,40
2019-01-24T09:01:54.122Z,40
2019-01-24T09:03:04.210Z,40
2019-01-24T09:04:14.194Z,45
2019-01-24T09:05:24.173Z,45
2019-01-24T09:06:34.154Z,45
2019-01-24T09:07:44.131Z,45
2019-01-24T09:08:54.212Z,45
2019-01-24T09:10:04.201Z,50
2019-01-24T09:11:14.181Z,50
2019-01-24T09:12:30.046Z,50
2019-01-24T09:13:40.447Z,50
2019-01-24T09:14:50.433Z,55
2019-01-24T09:16:00.410Z,55
2019-01-24T09:17:10.138Z,55
2019-01-24T09:18:20.125Z,55
2019-01-24T09:19:30.115Z,55
2019-01-24T09:20:40.198Z,55
2019-01-24T09:21:50.183Z,55
2019-01-24T09:23:04.532Z,55
2019-01-24T09:24:14.514Z,55
2019-01-24T09:25:24.531Z,55
2019-01-24T09:26:34.629Z,55
2019-01-24T09:27:44.607Z,60
2019-01-24T09:28:54.587Z,65
2019-01-24T09:30:04.568Z,65
2019-01-24T09:31:14.544Z,65
2019-01-24T09:32:24.527Z,65
2019-01-24T09:33:34.517Z,70
2019-01-24T09:34:44.535Z,70
2019-01-24T09:35:54.519Z,70
2019-01-24T09:37:04.500Z,70
2019-01-24T09:38:14.332Z,75
2019-01-24T09:39:24.325Z,75
2019-01-24T09:40:34.317Z,80
2019-01-24T09:41:44.293Z,75
2019-01-24T09:42:54.291Z,75
2019-01-24T09:44:04.375Z,75
2019-01-24T09:45:14.482Z,75
2019-01-24T09:46:24.462Z,75
2019-01-24T09:47:34.441Z,75
2019-01-24T09:48:44.572Z,75
2019-01-24T09:49:54.662Z,75
2019-01-24T09:51:04.642Z,80
2019-01-24T09:52:15.868Z,80
2019-01-24T09:53:25.870Z,85
2019-01-24T09:54:35.849Z,90
2019-01-24T09:55:45.611Z,90
2019-01-24T09:56:55.602Z,90
2019-01-24T09:58:05.588Z,90
2019-01-24T09:59:15.571Z,90
2019-01-24T10:00:25.563Z,90
2019-01-24T10:01:35.603Z,95
2019-01-24T10:02:45.583Z,95
2019-01-24T10:03:55.562Z,95
2019-01-24T10:05:05.546Z,95
2019-01-24T10:06:15.530Z,95
2019-01-24T10:07:25.511Z,95
2019-01-24T10:08:35.489Z,100
2019-01-24T10:09:45.467Z,105
2019-01-24T10:10:55.445Z,110
2019-01-24T10:12:06.618Z,110
2019-01-24T10:13:16.707Z,115
2019-01-24T10:14:26.684Z,115
2019-01-24T10:15:36.711Z,120
2019-01-24T10:16:46.697Z,120
2019-01-24T10:17:56.700Z,125
2019-01-24T10:19:06.686Z,130
2019-01-24T10:20:16.672Z,135
2019-01-24T10:21:26.656Z,135
2019-01-24T10:22:36.677Z,140
2019-01-24T10:23:46.657Z,135
2019-01-24T10:24:56.641Z,135
2019-01-24T10:26:06.628Z,135
2019-01-24T10:27:16.642Z,135
2019-01-24T10:28:26.620Z,135
2019-01-24T10:29:36.615Z,135
2019-01-24T10:30:51.915Z,140
2019-01-24T10:32:01.897Z,140
2019-01-24T10:33:11.881Z,140
2019-01-24T10:34:21.865Z,140
2019-01-24T10:35:31.854Z,140
2019-01-24T10:36:47.723Z,140
2019-01-24T10:37:57.705Z,145
2019-01-24T10:39:07.696Z,145
2019-01-24T10:40:17.700Z,145
2019-01-24T10:41:27.694Z,150
2019-01-24T10:42:37.727Z,150
2019-01-24T10:43:47.707Z,150
2019-01-24T10:44:57.686Z,150
2019-01-24T10:46:07.684Z,150
2019-01-24T10:47:17.670Z,150
2019-01-24T10:48:27.776Z,150
2019-01-24T10:49:37.760Z,150
2019-01-24T10:50:47.495Z,150
2019-01-24T10:51:57.475Z,150
2019-01-24T10:53:07.459Z,150
2019-01-24T10:54:17.438Z,150
2019-01-24T10:55:27.445Z,150
2019-01-24T10:56:37.729Z,150
2019-01-24T10:57:47.709Z,150
2019-01-24T10:58:57.693Z,150
2019-01-24T11:00:07.679Z,150
2019-01-24T11:01:17.659Z,150
2019-01-24T11:02:27.649Z,150
2019-01-24T11:03:37.382Z,150
2019-01-24T11:04:47.364Z,145
2019-01-24T11:05:57.446Z,145
2019-01-24T11:07:07.426Z,145
2019-01-24T11:08:17.411Z,145
2019-01-24T11:09:27.439Z,145
2019-01-24T11:10:37.428Z,145
2019-01-24T11:11:47.512Z,145
2019-01-24T11:12:57.499Z,145
2019-01-24T11:14:07.484Z,145
2019-01-24T11:15:17.490Z,145
2019-01-24T11:16:27.473Z,145
2019-01-24T11:17:37.555Z,145
2019-01-24T11:18:47.537Z,145
2019-01-24T11:19:57.269Z,145
2019-01-24T11:21:07.260Z,145
2019-01-24T11:22:17.247Z,145
2019-01-24T11:23:27.246Z,145
2019-01-24T11:24:37.254Z,140
2019-01-24T11:25:47.239Z,140
2019-01-24T11:26:57.225Z,140
2019-01-24T11:28:21.946Z,140
2019-01-24T11:29:31.929Z,140
2019-01-24T11:30:41.920Z,140
2019-01-24T11:31:51.908Z,140
2019-01-24T11:33:01.637Z,140
2019-01-24T11:34:11.727Z,140
2019-01-24T11:35:21.708Z,140
2019-01-24T11:36:31.697Z,140
2019-01-24T11:37:41.682Z,140
2019-01-24T11:38:51.705Z,140
2019-01-24T11:40:01.700Z,140
2019-01-24T11:41:11.692Z,140
2019-01-24T11:42:21.679Z,140
2019-01-24T11:43:31.666Z,140
2019-01-24T11:44:43.244Z,140
2019-01-24T11:45:53.276Z,140
2019-01-24T11:47:03.265Z,140
2019-01-24T11:48:14.247Z,140
2019-01-24T11:49:24.232Z,140
2019-01-24T11:50:34.222Z,140
2019-01-24T11:51:44.312Z,140
2019-01-24T11:52:54.300Z,140
2019-01-24T11:54:04.285Z,140
2019-01-24T11:55:14.289Z,140
2019-01-24T11:56:24.276Z,140
2019-01-24T11:57:34.315Z,140
2019-01-24T11:58:44.297Z,140
2019-01-24T11:59:54.279Z,135
2019-01-24T12:01:04.274Z,135
2019-01-24T12:02:14.261Z,135
2019-01-24T12:03:24.242Z,135
2019-01-24T12:04:34.241Z,135
2019-01-24T12:05:44.226Z,135
2019-01-24T12:06:54.212Z,140
2019-01-24T12:08:03.892Z,140
2019-01-24T12:09:14.027Z,140
2019-01-24T12:10:24.011Z,140
2019-01-24T12:11:35.184Z,140
2019-01-24T12:12:45.175Z,140
2019-01-24T12:13:54.904Z,140
2019-01-24T12:15:04.716Z,140
2019-01-24T12:16:14.702Z,140
2019-01-24T12:17:24.818Z,135
2019-01-24T12:18:34.880Z,135
2019-01-24T12:19:44.864Z,140
2019-01-24T12:20:54.954Z,140
2019-01-24T12:22:04.950Z,135
2019-01-24T12:23:14.936Z,135
2019-01-24T12:24:24.923Z,135
2019-01-24T12:25:34.905Z,135
2019-01-24T12:26:44.913Z,135
2019-01-24T12:27:54.894Z,135
2019-01-24T12:29:04.894Z,135
2019-01-24T12:30:14.880Z,135
2019-01-24T12:31:24.865Z,135
2019-01-24T12:32:34.901Z,135
2019-01-24T12:33:44.891Z,135
2019-01-24T12:34:54.893Z,130
2019-01-24T12:36:04.877Z,130
2019-01-24T12:37:20.660Z,130
2019-01-24T12:38:30.694Z,130
2019-01-24T12:39:40.689Z,130
2019-01-24T12:40:50.690Z,125
2019-01-24T12:42:00.676Z,125
2019-01-24T12:43:10.657Z,120
2019-01-24T12:44:21.297Z,120
2019-01-24T12:45:31.324Z,115
2019-01-24T12:46:41.311Z,110
2019-01-24T12:47:51.316Z,110
2019-01-24T12:49:01.310Z,110
2019-01-24T12:50:11.395Z,110
2019-01-24T12:51:21.381Z,110
2019-01-24T12:52:31.369Z,110
2019-01-24T12:53:55.999Z,110
2019-01-24T12:55:06.090Z,110
2019-01-24T12:56:16.092Z,110
2019-01-24T12:57:26.074Z,110
2019-01-24T12:58:35.825Z,110
2019-01-24T12:59:45.811Z,110
2019-01-24T13:00:55.849Z,110
2019-01-24T13:02:05.831Z,105
2019-01-24T13:03:15.821Z,105
2019-01-24T13:04:25.812Z,105
2019-01-24T13:05:35.794Z,105
2019-01-24T13:06:45.882Z,105
2019-01-24T13:07:55.863Z,105
2019-01-24T13:09:05.845Z,105
2019-01-24T13:10:15.835Z,105
2019-01-24T13:11:25.820Z,105
2019-01-24T13:12:35.905Z,100
2019-01-24T13:15:10.519Z,100
2019-01-24T13:16:20.508Z,100
2019-01-24T13:17:30.539Z,100
2019-01-24T13:18:40.523Z,100
2019-01-24T13:19:50.508Z,100
2019-01-24T13:21:00.491Z,100
2019-01-24T13:22:10.485Z,100
2019-01-24T13:23:20.619Z,95
2019-01-24T13:24:30.601Z,95
2019-01-24T13:25:40.587Z,95
2019-01-24T13:26:50.573Z,95
2019-01-24T13:28:00.324Z,95
2019-01-24T13:29:10.460Z,95
2019-01-24T13:30:20.455Z,90
2019-01-24T13:31:30.450Z,90
2019-01-24T13:32:40.111Z,85
2019-01-24T13:33:50.093Z,85
2019-01-24T13:35:00.233Z,85
2019-01-24T13:36:10.232Z,80
2019-01-24T13:37:25.673Z,80
2019-01-24T13:38:35.915Z,80
2019-01-24T13:39:45.906Z,80
2019-01-24T13:40:55.990Z,80
2019-01-24T13:42:06.001Z,75
2019-01-24T13:43:15.985Z,75
2019-01-24T13:44:26.149Z,75
2019-01-24T13:45:36.134Z,70
2019-01-24T13:46:46.114Z,70
2019-01-24T13:47:56.103Z,70
2019-01-24T13:49:20.727Z,70
2019-01-24T13:50:30.752Z,70
2019-01-24T13:51:40.842Z,70
2019-01-24T13:52:50.827Z,65
2019-01-24T13:54:00.816Z,65
2019-01-24T13:55:10.801Z,65
2019-01-24T13:56:20.786Z,65
2019-01-24T13:57:30.873Z,65
2019-01-24T13:58:41.698Z,65
2019-01-24T13:59:51.686Z,65
2019-01-24T14:01:01.667Z,65
2019-01-24T14:02:11.656Z,65
2019-01-24T14:03:21.797Z,60
2019-01-24T14:04:31.780Z,60
2019-01-24T14:05:41.762Z,60
2019-01-24T14:06:51.755Z,60
2019-01-24T14:08:01.744Z,55
2019-01-24T14:09:11.880Z,55
2019-01-24T14:10:21.861Z,50
2019-01-24T14:11:31.849Z,50
2019-01-24T14:12:41.832Z,45
2019-01-24T14:13:51.824Z,45
2019-01-24T14:15:01.863Z,45
2019-01-24T14:16:11.849Z,40
2019-01-24T14:17:21.838Z,40
2019-01-24T14:18:31.822Z,40
2019-01-24T14:19:41.813Z,40
2019-01-24T14:20:51.849Z,40
2019-01-24T14:22:01.960Z,35
2019-01-24T14:23:11.945Z,35
2019-01-24T14:24:21.926Z,35
2019-01-24T14:25:31.905Z,35
2019-01-24T14:26:41.993Z,35
2019-01-24T14:27:51.973Z,30
2019-01-24T14:29:01.955Z,30
2019-01-24T14:30:11.990Z,30
2019-01-24T14:31:21.971Z,30
2019-01-24T14:32:32.005Z,30
2019-01-24T14:33:41.993Z,30
2019-01-24T14:34:51.974Z,25
2019-01-24T14:36:01.959Z,25
2019-01-24T14:37:11.941Z,25
2019-01-24T14:38:21.973Z,25
2019-01-24T14:39:46.529Z,20
2019-01-24T14:40:56.517Z,20
2019-01-24T14:42:06.503Z,20
2019-01-24T14:43:16.533Z,20
2019-01-24T14:44:26.519Z,20
2019-01-24T14:45:36.874Z,20
2019-01-24T14:46:46.866Z,20
2019-01-24T14:47:56.849Z,15
2019-01-24T14:49:06.893Z,15
2019-01-24T14:50:16.877Z,15
2019-01-24T14:51:26.862Z,15
2019-01-24T14:52:36.841Z,15
2019-01-24T14:53:46.825Z,15
2019-01-24T14:54:57.429Z,10
2019-01-24T14:56:07.412Z,10
2019-01-24T14:57:18.238Z,10
2019-01-24T14:58:28.295Z,10
2019-01-24T14:59:53.022Z,10
2019-01-24T15:01:03.004Z,10
2019-01-24T15:02:13.026Z,10
2019-01-24T15:03:23.017Z,10
2019-01-24T15:04:33.000Z,5
2019-01-24T15:05:43.088Z,5
2019-01-24T15:06:53.068Z,5
2019-01-24T15:08:03.052Z,5
2019-01-24T15:09:13.035Z,5
2019-01-24T15:10:23.021Z,5
2019-01-24T15:11:33.162Z,5
2019-01-24T15:12:43.140Z,5
2019-01-24T15:13:53.147Z,5
2019-01-24T15:15:03.127Z,5
2019-01-24T15:16:13.115Z,0
2019-01-24T15:17:23.101Z,0
2019-01-24T15:18:33.085Z,0
2019-01-24T15:19:57.711Z,0
2019-01-24T15:21:07.698Z,0
2019-01-24T15:22:17.780Z,0
2019-01-24T15:23:27.758Z,0
2019-01-24T15:24:37.793Z,0
2019-01-24T15:25:47.778Z,0
2019-01-24T15:26:57.763Z,0
2019-01-24T15:28:07.831Z,0
2019-01-24T15:29:17.815Z,0
2019-01-24T15:30:27.809Z,0
2019-01-24T15:31:37.797Z,0
2019-01-24T15:32:47.782Z,0
2019-01-24T15:33:58.474Z,0
2019-01-24T15:35:08.561Z,0
2019-01-24T15:36:18.550Z,0
2019-01-24T15:37:28.530Z,0
2019-01-24T15:38:38.556Z,0
2019-01-24T15:39:48.594Z,0
2019-01-24T15:40:58.322Z,0
2019-01-24T15:42:08.304Z,0
2019-01-24T15:43:18.283Z,0
2019-01-24T15:44:28.266Z,0
2019-01-24T15:45:38.310Z,0
2019-01-24T15:46:48.292Z,0
2019-01-24T15:47:58.276Z,0
2019-01-24T15:49:08.259Z,0
2019-01-24T15:50:17.988Z,0
2019-01-24T15:51:28.046Z,0
2019-01-24T15:52:43.438Z,0
2019-01-24T15:53:53.419Z,0
2019-01-24T15:55:18.046Z,0
2019-01-24T15:56:28.234Z,0
2019-01-24T15:57:38.228Z,0
2019-01-24T15:58:48.214Z,0
2019-01-24T16:01:22.883Z,0
2019-01-24T16:02:32.864Z,0
2019-01-24T16:03:42.610Z,0
2019-01-24T16:04:52.587Z,0
2019-01-24T16:06:02.580Z,0
2019-01-24T16:07:12.710Z,0
2019-01-24T16:08:22.696Z,0
2019-01-24T16:09:32.680Z,0
2019-01-24T16:10:42.662Z,0
2019-01-24T16:11:52.649Z,0
2019-01-24T16:13:02.736Z,0
2019-01-24T16:14:12.725Z,0
2019-01-24T16:15:22.706Z,0
2019-01-24T16:16:32.437Z,0
2019-01-24T16:17:42.419Z,0
2019-01-24T16:18:52.515Z,0
2019-01-24T16:20:02.613Z,0
2019-01-24T16:21:12.599Z,0
2019-01-24T16:22:22.584Z,0
2019-01-24T16:23:32.567Z,0
2019-01-24T16:24:42.604Z,0
2019-01-24T16:25:52.583Z,0
2019-01-24T16:27:02.566Z,0
2019-01-24T16:28:12.547Z,0
2019-01-24T16:29:22.529Z,0
2019-01-24T16:30:32.618Z,0
2019-01-24T16:31:42.602Z,0
2019-01-24T16:32:52.584Z,0
2019-01-24T16:34:02.571Z,0
2019-01-24T16:35:12.555Z,0
2019-01-24T16:36:24.136Z,0
2019-01-24T16:37:34.165Z,0
2019-01-24T16:38:44.203Z,0
2019-01-24T16:39:54.193Z,0
2019-01-24T16:41:04.195Z,0
2019-01-24T16:42:14.277Z,0
2019-01-24T16:43:24.255Z,0
2019-01-24T16:44:34.236Z,0
2019-01-24T16:45:44.220Z,0
2019-01-24T16:46:54.203Z,0
2019-01-24T16:48:04.332Z,0
2019-01-24T16:49:14.313Z,0
2019-01-24T16:50:24.319Z,0
2019-01-24T16:51:34.300Z,0
2019-01-24T16:52:44.280Z,0
2019-01-24T16:53:54.263Z,0
2019-01-24T16:55:04.252Z,0
2019-01-24T16:56:14.234Z,0
2019-01-24T16:57:24.217Z,0
2019-01-24T16:58:34.198Z,0